Time;durP1;ratioP1;P1;durP2;ratioP2;P2;SDS_P1;SDS_P2;PMS_P1;PMS_P2;Temp;Humidity;BMP_temperature;BMP_pressure;BME280_temperature;BME280_humidity;BME280_pressure;Samples;Min_cycle;Max_cycle;Signal;HPM_P1;HPM_P2
2022/09/26 00:00:42;;;;;;;3.03;0.40;;;11.80;99.90;;;;;;5046176;28;21065;-72
2022/09/26 00:03:10;;;;;;;2.88;0.40;;;11.80;99.90;;;;;;5040925;28;20455;-72
2022/09/26 00:05:36;;;;;;;2.42;0.40;;;11.80;99.90;;;;;;5047472;28;20486;-71
2022/09/26 00:08:03;;;;;;;4.22;0.50;;;11.80;99.90;;;;;;5044980;28;20463;-72
2022/09/26 00:10:29;;;;;;;3.00;0.30;;;11.80;99.90;;;;;;5045915;28;20749;-73
2022/09/26 00:12:55;;;;;;;2.03;0.37;;;11.80;99.90;;;;;;5046283;28;20415;-72
2022/09/26 00:15:22;;;;;;;4.28;0.45;;;11.70;99.90;;;;;;5045258;28;20838;-73
2022/09/26 00:17:48;;;;;;;3.75;0.40;;;11.80;99.90;;;;;;5047109;28;20891;-72
2022/09/26 00:20:13;;;;;;;3.80;0.60;;;11.80;99.90;;;;;;5046648;28;20405;-73
2022/09/26 00:22:39;;;;;;;3.25;0.80;;;11.80;99.90;;;;;;5047276;28;20434;-73
2022/09/26 00:25:05;;;;;;;3.50;0.50;;;11.80;99.90;;;;;;5047439;28;20894;-73
2022/09/26 00:27:31;;;;;;;4.03;0.55;;;11.70;99.90;;;;;;5046847;28;20780;-72
2022/09/26 00:29:56;;;;;;;2.15;0.60;;;11.80;99.90;;;;;;5047451;28;20416;-72
2022/09/26 00:32:22;;;;;;;5.43;0.90;;;11.80;99.90;;;;;;5046044;28;20982;-73
2022/09/26 00:34:48;;;;;;;3.60;0.70;;;11.80;99.90;;;;;;5047052;28;20405;-73
2022/09/26 00:37:13;;;;;;;2.23;0.63;;;11.80;99.90;;;;;;5047163;28;20402;-72
2022/09/26 00:39:39;;;;;;;3.85;0.60;;;11.80;99.90;;;;;;5029121;28;20405;-72
2022/09/26 00:42:04;;;;;;;4.50;0.70;;;11.80;99.90;;;;;;5046653;28;20509;-73
2022/09/26 00:44:53;;;;;;;3.55;0.70;;;11.80;99.90;;;;;;5047317;28;20401;-73
2022/09/26 00:47:27;;;;;;;3.08;0.70;;;11.80;99.90;;;;;;5047311;28;20406;-72
2022/09/26 00:50:14;;;;;;;3.55;0.77;;;11.90;99.90;;;;;;5047080;28;20901;-73
2022/09/26 00:52:45;;;;;;;4.10;0.80;;;11.90;99.90;;;;;;5047024;28;20417;-73
2022/09/26 00:55:14;;;;;;;3.40;0.80;;;11.90;99.90;;;;;;5046962;28;20413;-73
2022/09/26 00:57:52;;;;;;;4.18;0.77;;;11.90;99.90;;;;;;5046727;28;20405;-73
2022/09/26 01:00:17;;;;;;;3.10;0.90;;;11.80;99.90;;;;;;5046167;28;20420;-73
2022/09/26 01:02:45;;;;;;;4.43;1.10;;;11.90;99.90;;;;;;5047102;28;20405;-73
2022/09/26 01:05:14;;;;;;;5.00;1.20;;;11.80;99.90;;;;;;5047070;28;20757;-73
2022/09/26 01:07:40;;;;;;;2.45;1.00;;;11.80;99.90;;;;;;5041907;28;20418;-72
2022/09/26 01:10:06;;;;;;;4.43;1.27;;;11.80;99.90;;;;;;5021897;28;20798;-73
2022/09/26 01:12:35;;;;;;;3.67;1.00;;;11.80;99.90;;;;;;5045226;28;20944;-72
2022/09/26 01:15:01;;;;;;;4.00;1.48;;;11.80;99.90;;;;;;5045369;28;20843;-72
2022/09/26 01:17:27;;;;;;;3.27;1.10;;;11.70;99.90;;;;;;5045456;28;20429;-73
2022/09/26 01:20:12;;;;;;;5.22;1.35;;;11.80;99.90;;;;;;5047116;28;20401;-73
2022/09/26 01:22:50;;;;;;;4.43;1.15;;;11.70;99.90;;;;;;5036570;28;20432;-73
2022/09/26 01:25:31;;;;;;;3.85;1.20;;;11.70;99.90;;;;;;5045578;28;20428;-72
2022/09/26 01:28:30;;;;;;;5.07;1.38;;;11.70;99.90;;;;;;5044660;28;20908;-73
2022/09/26 01:31:12;;;;;;;4.72;1.27;;;11.70;99.90;;;;;;5050541;28;20491;-73
2022/09/26 01:34:07;;;;;;;5.35;1.30;;;11.70;99.90;;;;;;5050172;28;20413;-73
2022/09/26 01:36:45;;;;;;;2.97;1.10;;;11.70;99.90;;;;;;5049023;28;20508;-73
2022/09/26 01:39:19;;;;;;;4.20;1.40;;;11.70;99.90;;;;;;5048807;28;20935;-73
2022/09/26 01:41:51;;;;;;;6.03;1.45;;;11.70;99.90;;;;;;5049839;28;20920;-72
2022/09/26 01:44:42;;;;;;;5.85;1.80;;;11.70;99.90;;;;;;5049830;28;20409;-72
2022/09/26 01:47:34;;;;;;;4.03;1.38;;;11.70;99.90;;;;;;5048682;28;20421;-73
2022/09/26 01:50:33;;;;;;;3.50;1.30;;;11.70;99.90;;;;;;5045567;28;20430;-73
2022/09/26 01:53:15;;;;;;;4.88;1.67;;;11.60;99.90;;;;;;5024938;28;21122;-73
2022/09/26 01:55:45;;;;;;;3.85;1.20;;;11.70;99.90;;;;;;5049838;28;20737;-72
2022/09/26 01:58:24;;;;;;;4.13;1.50;;;11.70;99.90;;;;;;5036297;28;20416;-73
2022/09/26 02:00:51;;;;;;;5.68;1.20;;;11.70;99.90;;;;;;5049713;28;20923;-73
2022/09/26 02:03:24;;;;;;;3.65;1.40;;;11.70;99.90;;;;;;5048468;28;20412;-73
2022/09/26 02:06:04;;;;;;;6.70;1.35;;;11.70;99.90;;;;;;5049122;28;20412;-73
2022/09/26 02:08:38;;;;;;;6.78;1.58;;;11.70;99.90;;;;;;5050083;28;20910;-73
2022/09/26 02:11:16;;;;;;;5.43;1.40;;;11.70;99.90;;;;;;5049455;28;20422;-73
2022/09/26 02:13:59;;;;;;;4.40;1.30;;;11.70;99.90;;;;;;5047724;28;20456;-73
2022/09/26 02:16:33;;;;;;;4.68;1.17;;;11.70;99.90;;;;;;5049500;28;20908;-73
2022/09/26 02:19:05;;;;;;;5.28;1.40;;;11.70;99.90;;;;;;5047882;28;20420;-72
2022/09/26 02:21:30;;;;;;;4.22;1.20;;;11.70;99.90;;;;;;5049663;28;20473;-73
2022/09/26 02:23:56;;;;;;;5.93;1.63;;;11.70;99.90;;;;;;5049247;28;20502;-73
2022/09/26 02:26:22;;;;;;;6.57;1.70;;;11.70;99.90;;;;;;5049401;28;20911;-72
2022/09/26 02:28:48;;;;;;;2.78;1.10;;;11.70;99.90;;;;;;5048955;28;20856;-72
2022/09/26 02:31:21;;;;;;;5.53;1.20;;;11.70;99.90;;;;;;5048133;28;20417;-73
2022/09/26 02:33:48;;;;;;;6.35;1.40;;;11.70;99.90;;;;;;5048829;28;20401;-73
2022/09/26 02:36:15;;;;;;;4.90;1.40;;;11.70;99.90;;;;;;5049370;28;20398;-72
2022/09/26 02:38:41;;;;;;;3.67;1.08;;;11.70;99.90;;;;;;5049225;28;20403;-72
2022/09/26 02:41:17;;;;;;;6.60;1.60;;;11.70;99.90;;;;;;5047537;28;20790;-73
2022/09/26 02:44:17;;;;;;;4.95;1.30;;;11.70;99.90;;;;;;5047247;28;20410;-74
2022/09/26 02:47:01;;;;;;;4.15;1.50;;;11.70;99.90;;;;;;5038747;28;20417;-73
2022/09/26 02:49:40;;;;;;;6.22;1.70;;;11.60;99.90;;;;;;5049105;28;20496;-73
2022/09/26 02:52:32;;;;;;;5.30;1.37;;;11.70;99.90;;;;;;5048824;28;20409;-73
2022/09/26 02:55:10;;;;;;;5.28;1.60;;;11.60;99.90;;;;;;5049016;28;20409;-73
2022/09/26 02:58:02;;;;;;;5.28;1.73;;;11.60;99.90;;;;;;5048611;28;20943;-73
2022/09/26 03:00:41;;;;;;;5.38;1.75;;;11.50;99.90;;;;;;5046977;28;20963;-73
2022/09/26 03:03:19;;;;;;;5.72;2.30;;;11.50;99.90;;;;;;5048484;28;20484;-75
2022/09/26 03:05:47;;;;;;;8.10;2.08;;;11.50;99.90;;;;;;5048428;28;20833;-73
2022/09/26 03:08:36;;;;;;;7.23;2.00;;;11.40;99.90;;;;;;5046497;28;20416;-73
2022/09/26 03:11:04;;;;;;;6.40;2.15;;;11.40;99.90;;;;;;5047193;28;20929;-73
2022/09/26 03:13:34;;;;;;;5.38;2.40;;;11.40;99.90;;;;;;5048439;28;20421;-73
2022/09/26 03:16:00;;;;;;;6.18;2.30;;;11.40;99.90;;;;;;5048267;28;20428;-74
2022/09/26 03:18:31;;;;;;;10.30;2.55;;;11.40;99.90;;;;;;5043437;28;20414;-74
2022/09/26 03:20:56;;;;;;;7.90;2.55;;;11.40;99.90;;;;;;5042126;28;20839;-73
2022/09/26 03:23:24;;;;;;;7.93;2.60;;;11.40;99.90;;;;;;5048078;28;20990;-72
2022/09/26 03:26:09;;;;;;;7.32;2.38;;;11.40;99.90;;;;;;5048137;28;20423;-73
2022/09/26 03:28:35;;;;;;;9.55;2.83;;;11.40;99.90;;;;;;5047350;28;20462;-73
2022/09/26 03:31:01;;;;;;;5.85;2.55;;;11.30;99.90;;;;;;5047723;28;20417;-73
2022/09/26 03:33:27;;;;;;;7.70;2.50;;;11.30;99.90;;;;;;5047096;28;20413;-73
2022/09/26 03:35:52;;;;;;;7.00;2.67;;;11.30;99.90;;;;;;5047880;28;20408;-73
2022/09/26 03:38:18;;;;;;;5.57;2.40;;;11.30;99.90;;;;;;5047934;28;20409;-73
2022/09/26 03:40:45;;;;;;;6.93;2.80;;;11.30;99.90;;;;;;5047359;28;20466;-73
2022/09/26 03:43:11;;;;;;;8.20;2.92;;;11.30;99.90;;;;;;5047957;28;20412;-74
2022/09/26 03:45:37;;;;;;;8.82;2.85;;;11.30;99.90;;;;;;5047730;28;20410;-73
2022/09/26 03:48:03;;;;;;;9.00;3.20;;;11.30;99.90;;;;;;5048295;28;20406;-73
2022/09/26 03:50:29;;;;;;;6.33;3.13;;;11.30;99.90;;;;;;5045245;28;20456;-74
2022/09/26 03:52:54;;;;;;;8.38;3.17;;;11.30;99.90;;;;;;5043070;28;20438;-73
2022/09/26 03:55:20;;;;;;;8.50;3.50;;;11.30;99.90;;;;;;5043927;28;20463;-73
2022/09/26 03:57:45;;;;;;;8.77;3.25;;;11.30;99.90;;;;;;5047906;28;20404;-74
2022/09/26 04:00:11;;;;;;;8.43;3.08;;;11.20;99.90;;;;;;5047677;28;20516;-73
2022/09/26 04:02:37;;;;;;;10.97;3.47;;;11.30;99.90;;;;;;5043117;28;20489;-73
2022/09/26 04:05:03;;;;;;;6.80;3.40;;;11.20;99.90;;;;;;5041528;28;20419;-73
2022/09/26 04:07:29;;;;;;;6.22;3.70;;;11.20;99.90;;;;;;5047723;28;20408;-73
2022/09/26 04:09:55;;;;;;;7.57;3.40;;;11.20;99.90;;;;;;5047190;28;20539;-74
2022/09/26 04:12:20;;;;;;;7.50;3.80;;;11.30;99.90;;;;;;5047665;28;20518;-74
2022/09/26 04:14:46;;;;;;;7.40;3.67;;;11.20;99.90;;;;;;5047504;28;20405;-73
2022/09/26 04:17:12;;;;;;;8.30;3.73;;;11.20;99.90;;;;;;5047204;28;20414;-73
2022/09/26 04:19:39;;;;;;;9.05;4.20;;;11.20;99.90;;;;;;5050747;28;20401;-73
2022/09/26 04:22:07;;;;;;;8.45;4.10;;;11.20;99.90;;;;;;5057587;28;20465;-73
2022/09/26 04:24:32;;;;;;;8.67;4.23;;;11.20;99.90;;;;;;5057273;28;20473;-73
2022/09/26 04:26:59;;;;;;;8.87;4.20;;;11.20;99.90;;;;;;5052491;28;21002;-73
2022/09/26 04:29:26;;;;;;;9.73;4.20;;;11.20;99.90;;;;;;5044879;28;20406;-73
2022/09/26 04:31:52;;;;;;;7.57;4.30;;;11.20;99.90;;;;;;5047084;28;20398;-73
2022/09/26 04:34:17;;;;;;;8.48;3.90;;;11.20;99.90;;;;;;5047711;28;20417;-73
2022/09/26 04:36:43;;;;;;;8.18;4.65;;;11.20;99.90;;;;;;5047355;28;20397;-74
2022/09/26 04:39:09;;;;;;;9.50;4.50;;;11.20;99.90;;;;;;5047613;28;20898;-74
2022/09/26 04:41:35;;;;;;;9.18;4.53;;;11.20;99.90;;;;;;5042082;28;20431;-73
2022/09/26 04:44:01;;;;;;;10.20;5.15;;;11.10;99.90;;;;;;5047146;28;20413;-73
2022/09/26 04:46:28;;;;;;;8.13;4.93;;;11.20;99.90;;;;;;5043141;28;20402;-75
2022/09/26 04:48:56;;;;;;;8.70;4.90;;;11.20;99.90;;;;;;5052214;28;20405;-74
2022/09/26 04:51:23;;;;;;;6.93;4.60;;;11.20;99.90;;;;;;5056948;28;20405;-74
2022/09/26 04:53:50;;;;;;;7.45;4.40;;;11.20;99.90;;;;;;5056080;28;20425;-74
2022/09/26 04:56:18;;;;;;;9.38;4.75;;;11.10;99.90;;;;;;5056516;28;20776;-75
2022/09/26 04:58:44;;;;;;;9.90;5.28;;;11.20;99.90;;;;;;5048927;28;20401;-74
2022/09/26 05:01:12;;;;;;;9.27;4.80;;;11.20;99.90;;;;;;5047070;28;20475;-74
2022/09/26 05:03:38;;;;;;;9.73;4.70;;;11.20;99.90;;;;;;5049054;28;20456;-74
2022/09/26 05:06:07;;;;;;;9.67;4.77;;;11.10;99.90;;;;;;5046677;28;20932;-74
2022/09/26 05:08:34;;;;;;;8.80;4.90;;;11.10;99.90;;;;;;5041939;28;20401;-74
2022/09/26 05:11:01;;;;;;;10.00;4.97;;;11.10;99.90;;;;;;5049323;28;20405;-73
2022/09/26 05:13:27;;;;;;;7.72;4.65;;;11.10;99.90;;;;;;5051581;28;20402;-74
2022/09/26 05:15:54;;;;;;;9.48;4.82;;;11.20;99.90;;;;;;5051018;28;20742;-73
2022/09/26 05:18:24;;;;;;;9.13;4.80;;;11.20;99.90;;;;;;5051181;28;20535;-73
2022/09/26 05:20:50;;;;;;;9.07;5.03;;;11.20;99.90;;;;;;5050703;28;20424;-73
2022/09/26 05:26:20;;;;;;;9.70;5.10;;;11.10;99.90;;;;;;5037737;28;20458;-73
2022/09/26 05:28:54;;;;;;;10.02;4.70;;;11.10;99.90;;;;;;5049440;28;20911;-73
2022/09/26 05:31:25;;;;;;;7.22;4.50;;;11.10;99.90;;;;;;5050342;28;20405;-74
2022/09/26 05:33:50;;;;;;;9.13;4.55;;;11.10;99.90;;;;;;5050645;28;20978;-73
2022/09/26 05:36:18;;;;;;;8.23;4.85;;;11.10;99.90;;;;;;5050702;28;20489;-73
2022/09/26 05:38:44;;;;;;;9.68;5.45;;;11.10;99.90;;;;;;5048936;28;20394;-73
2022/09/26 05:41:12;;;;;;;7.28;4.95;;;11.10;99.90;;;;;;5050083;28;20433;-73
2022/09/26 05:43:37;;;;;;;9.65;5.07;;;11.10;99.90;;;;;;5048393;28;20441;-73
2022/09/26 05:46:05;;;;;;;8.70;5.20;;;11.10;99.90;;;;;;5049985;28;20455;-73
2022/09/26 05:48:34;;;;;;;10.25;4.82;;;11.10;99.90;;;;;;5045437;28;20434;-73
2022/09/26 05:51:09;;;;;;;9.93;5.22;;;11.10;99.90;;;;;;5045099;28;20421;-74
2022/09/26 05:53:35;;;;;;;9.95;5.22;;;11.10;99.90;;;;;;5046822;28;20988;-73
2022/09/26 05:56:01;;;;;;;8.33;5.37;;;11.10;99.90;;;;;;5049761;28;20402;-73
2022/09/26 05:58:31;;;;;;;10.05;5.50;;;11.10;99.90;;;;;;5049468;28;20903;-72
2022/09/26 06:01:03;;;;;;;9.77;5.40;;;11.10;99.90;;;;;;5049708;28;20456;-74
2022/09/26 06:03:33;;;;;;;10.15;6.28;;;11.10;99.90;;;;;;5049627;28;20409;-74
2022/09/26 06:06:03;;;;;;;11.57;6.22;;;11.10;99.90;;;;;;5048774;28;20431;-74
2022/09/26 06:08:29;;;;;;;10.43;6.20;;;11.10;99.90;;;;;;5049142;28;20475;-74
2022/09/26 06:11:02;;;;;;;9.15;5.70;;;11.10;99.90;;;;;;5048938;28;20479;-74
2022/09/26 06:13:29;;;;;;;11.50;5.83;;;11.10;99.90;;;;;;5047606;28;20476;-74
2022/09/26 06:15:55;;;;;;;13.30;6.47;;;11.10;99.90;;;;;;5048459;28;20489;-73
2022/09/26 06:18:20;;;;;;;12.13;5.95;;;11.10;99.90;;;;;;5048686;28;20410;-74
2022/09/26 06:20:46;;;;;;;10.70;6.20;;;11.10;99.90;;;;;;5049582;28;20771;-73
2022/09/26 06:23:12;;;;;;;10.15;5.85;;;11.10;99.90;;;;;;5047436;28;20410;-72
2022/09/26 06:25:37;;;;;;;9.67;5.87;;;11.10;99.90;;;;;;5049032;28;20401;-73
2022/09/26 06:28:03;;;;;;;10.90;6.03;;;11.10;99.90;;;;;;5047670;28;20414;-73
2022/09/26 06:30:28;;;;;;;10.43;6.17;;;11.10;99.90;;;;;;5048233;28;20962;-73
2022/09/26 06:32:54;;;;;;;11.77;6.93;;;11.10;99.90;;;;;;5048520;28;20488;-73
2022/09/26 06:35:20;;;;;;;11.18;6.20;;;11.10;99.90;;;;;;5048683;28;20842;-73
2022/09/26 06:37:46;;;;;;;10.23;6.70;;;11.10;99.90;;;;;;5048529;28;20427;-74
2022/09/26 06:40:12;;;;;;;9.43;6.18;;;11.10;99.90;;;;;;5048158;28;20711;-74
2022/09/26 06:42:38;;;;;;;10.45;6.40;;;11.10;99.90;;;;;;5048456;28;20421;-74
2022/09/26 06:45:09;;;;;;;10.00;6.03;;;11.10;99.90;;;;;;5048533;28;20760;-73
2022/09/26 06:47:35;;;;;;;10.60;6.10;;;11.10;99.90;;;;;;5046897;28;20977;-74
2022/09/26 06:50:01;;;;;;;10.75;5.63;;;11.10;99.90;;;;;;5048083;28;20402;-73
2022/09/26 06:52:33;;;;;;;8.70;5.63;;;11.00;99.90;;;;;;5030679;28;20958;-74
2022/09/26 06:55:01;;;;;;;10.40;5.78;;;11.00;99.90;;;;;;5044576;28;20952;-75
2022/09/26 06:57:28;;;;;;;10.63;6.17;;;11.00;99.90;;;;;;5047584;28;20420;-74
2022/09/26 06:59:54;;;;;;;11.77;5.75;;;11.00;99.90;;;;;;5048352;28;20477;-73
2022/09/26 07:02:20;;;;;;;10.38;6.00;;;11.00;99.90;;;;;;5048744;28;20791;-74
2022/09/26 07:04:46;;;;;;;9.83;5.53;;;11.00;99.90;;;;;;5048789;28;20401;-75
2022/09/26 07:07:11;;;;;;;12.80;6.03;;;11.00;99.90;;;;;;5048650;28;20444;-74
2022/09/26 07:09:39;;;;;;;10.00;5.83;;;11.00;99.90;;;;;;5048067;28;20508;-73
2022/09/26 07:12:05;;;;;;;11.00;5.90;;;11.00;99.90;;;;;;5048369;28;20480;-73
2022/09/26 07:14:31;;;;;;;10.38;5.68;;;11.00;99.90;;;;;;5048278;28;20737;-73
2022/09/26 07:16:56;;;;;;;11.13;6.03;;;11.00;99.90;;;;;;5048209;28;20458;-74
2022/09/26 07:19:22;;;;;;;9.07;5.55;;;11.00;99.90;;;;;;5046708;28;20808;-74
2022/09/26 07:21:48;;;;;;;9.25;5.07;;;10.90;99.90;;;;;;5047867;28;20784;-73
2022/09/26 07:24:13;;;;;;;10.53;5.30;;;10.90;99.90;;;;;;5048315;28;20417;-73
2022/09/26 07:26:40;;;;;;;12.05;6.00;;;10.90;99.90;;;;;;5046966;28;20394;-73
2022/09/26 07:29:06;;;;;;;11.48;5.85;;;10.90;99.90;;;;;;5048359;28;20394;-73
2022/09/26 07:31:32;;;;;;;11.40;6.00;;;10.90;99.90;;;;;;5048536;28;20443;-73
2022/09/26 07:33:58;;;;;;;12.43;5.70;;;11.00;99.90;;;;;;5047816;28;20901;-73
2022/09/26 07:36:23;;;;;;;8.67;5.43;;;11.00;99.90;;;;;;5047766;28;20420;-74
2022/09/26 07:38:49;;;;;;;9.32;5.63;;;11.00;99.90;;;;;;5048123;28;20465;-74
2022/09/26 07:41:16;;;;;;;9.63;5.28;;;11.10;99.90;;;;;;5047779;28;20425;-73
2022/09/26 07:43:42;;;;;;;9.97;5.37;;;11.10;99.90;;;;;;5047620;28;20432;-73
2022/09/26 07:51:37;;;;;;;6.63;4.15;;;11.20;99.90;;;;;;5047313;28;20410;-73
2022/09/26 07:54:04;;;;;;;10.77;4.23;;;11.30;99.90;;;;;;5047825;28;20404;-74
2022/09/26 07:56:33;;;;;;;8.32;4.50;;;11.30;99.90;;;;;;5048084;28;20413;-75
2022/09/26 07:59:02;;;;;;;7.72;4.25;;;11.30;99.90;;;;;;5047649;28;20876;-73
2022/09/26 08:01:28;;;;;;;10.98;4.05;;;11.30;99.90;;;;;;5047008;28;20432;-73
2022/09/26 08:03:57;;;;;;;7.32;4.35;;;11.30;99.90;;;;;;5047614;28;20961;-73
2022/09/26 08:06:26;;;;;;;8.82;4.68;;;11.40;99.90;;;;;;5042937;28;20407;-72
2022/09/26 08:08:57;;;;;;;8.23;4.50;;;11.40;99.90;;;;;;5047011;28;20753;-73
2022/09/26 08:11:23;;;;;;;8.93;3.78;;;11.40;99.90;;;;;;5043081;28;20422;-74
2022/09/26 08:13:49;;;;;;;6.38;3.50;;;11.40;99.90;;;;;;5047040;28;20408;-75
2022/09/26 08:16:21;;;;;;;8.77;4.13;;;11.40;99.90;;;;;;5047432;28;20406;-73
2022/09/26 08:18:51;;;;;;;9.35;4.10;;;11.40;99.90;;;;;;5034978;28;20484;-74
2022/09/26 08:21:17;;;;;;;7.13;3.50;;;11.40;99.90;;;;;;5045816;28;20730;-74
2022/09/26 08:23:43;;;;;;;7.60;3.50;;;11.40;99.90;;;;;;5046971;28;20444;-74
2022/09/26 08:26:09;;;;;;;8.32;4.13;;;11.50;99.90;;;;;;5047182;28;20397;-73
2022/09/26 08:28:35;;;;;;;8.18;3.47;;;11.50;99.90;;;;;;5046876;28;20401;-73
2022/09/26 08:31:03;;;;;;;7.63;3.30;;;11.50;99.90;;;;;;5047194;28;20405;-73
2022/09/26 08:33:34;;;;;;;5.17;3.10;;;11.50;99.90;;;;;;5047126;28;20408;-74
2022/09/26 08:36:09;;;;;;;6.53;3.17;;;11.50;99.90;;;;;;5046152;28;20405;-74
2022/09/26 08:38:37;;;;;;;6.65;3.55;;;11.50;99.90;;;;;;5050595;28;20414;-74
2022/09/26 08:41:23;;;;;;;5.35;2.92;;;11.50;99.90;;;;;;5051212;28;20923;-74
2022/09/26 08:44:25;;;;;;;5.80;2.90;;;11.50;99.90;;;;;;5049421;28;20449;-73
2022/09/26 08:47:00;;;;;;;6.07;2.60;;;11.50;99.90;;;;;;5020993;28;20955;-73
2022/09/26 08:49:38;;;;;;;7.32;2.70;;;11.50;99.90;;;;;;5050066;28;20409;-74
2022/09/26 08:52:19;;;;;;;5.23;2.57;;;11.50;99.90;;;;;;5049425;28;20409;-74
2022/09/26 08:54:46;;;;;;;6.78;2.60;;;11.50;99.90;;;;;;5048023;28;20846;-73
2022/09/26 08:57:29;;;;;;;4.40;2.50;;;11.50;99.90;;;;;;5050932;28;20964;-74
2022/09/26 08:59:55;;;;;;;5.47;2.85;;;11.60;99.90;;;;;;5033207;28;20789;-74
2022/09/26 09:02:45;;;;;;;5.45;2.60;;;11.60;99.90;;;;;;5051062;28;20871;-74
2022/09/26 09:05:27;;;;;;;6.33;2.50;;;11.60;99.90;;;;;;5051284;28;20775;-73
2022/09/26 09:07:56;;;;;;;7.35;2.70;;;11.70;99.90;;;;;;5037410;28;20409;-74
2022/09/26 09:10:42;;;;;;;6.05;2.70;;;11.70;99.90;;;;;;5050694;28;20409;-74
2022/09/26 09:13:40;;;;;;;5.07;2.55;;;11.70;99.90;;;;;;5045984;28;20786;-74
2022/09/26 09:16:24;;;;;;;5.72;2.50;;;11.70;99.90;;;;;;5048234;28;20462;-74
2022/09/26 09:18:59;;;;;;;5.95;2.45;;;11.70;99.90;;;;;;5050267;28;20421;-74
2022/09/26 09:21:58;;;;;;;6.05;2.30;;;11.70;99.90;;;;;;5050461;28;20426;-74
2022/09/26 09:24:36;;;;;;;5.28;2.40;;;11.80;99.90;;;;;;5050559;28;20445;-75
2022/09/26 09:27:26;;;;;;;6.63;2.50;;;11.80;99.90;;;;;;5046049;28;20422;-73
2022/09/26 09:30:09;;;;;;;6.75;2.78;;;11.80;99.90;;;;;;5047101;28;20409;-74
2022/09/26 09:32:53;;;;;;;6.57;2.70;;;11.80;99.90;;;;;;5049758;28;20422;-73
2022/09/26 09:35:31;;;;;;;5.45;2.70;;;11.80;99.90;;;;;;5039176;28;20934;-73
2022/09/26 09:37:57;;;;;;;5.53;2.90;;;11.80;99.90;;;;;;5048757;28;20417;-73
2022/09/26 09:40:36;;;;;;;7.13;3.28;;;11.80;99.90;;;;;;5049078;28;20425;-73
2022/09/26 09:43:06;;;;;;;7.47;3.38;;;11.80;99.90;;;;;;5050330;28;20621;-73
2022/09/26 09:45:49;;;;;;;8.52;3.50;;;11.80;99.90;;;;;;5050202;28;20867;-75
2022/09/26 09:48:15;;;;;;;6.93;3.00;;;11.80;99.90;;;;;;5049878;28;20982;-73
2022/09/26 09:50:55;;;;;;;8.02;3.40;;;11.80;99.90;;;;;;5048114;28;20413;-73
2022/09/26 09:53:24;;;;;;;8.43;3.47;;;11.80;99.90;;;;;;5049939;28;20405;-73
2022/09/26 09:56:14;;;;;;;7.03;3.42;;;11.80;99.90;;;;;;5048765;28;20432;-74
2022/09/26 09:58:46;;;;;;;7.72;3.50;;;11.80;99.90;;;;;;5047909;28;20479;-73
2022/09/26 10:01:11;;;;;;;6.00;3.20;;;11.80;99.90;;;;;;5048585;28;20436;-73
2022/09/26 10:04:10;;;;;;;6.60;3.00;;;11.70;99.90;;;;;;5049679;28;20405;-73
2022/09/26 10:06:36;;;;;;;7.28;3.28;;;11.70;99.90;;;;;;5049545;28;20424;-75
2022/09/26 10:09:35;;;;;;;7.47;3.50;;;11.70;99.90;;;;;;5044966;28;20395;-73
2022/09/26 10:12:01;;;;;;;9.93;3.38;;;11.70;99.90;;;;;;5039738;28;20419;-73
2022/09/26 10:14:41;;;;;;;6.82;3.50;;;11.80;99.90;;;;;;5045093;28;20544;-73
2022/09/26 10:17:10;;;;;;;7.03;3.38;;;11.80;99.90;;;;;;5047025;28;20401;-73
2022/09/26 10:19:37;;;;;;;8.23;3.90;;;11.80;99.90;;;;;;5044692;28;20488;-73
2022/09/26 10:22:24;;;;;;;8.20;3.30;;;11.80;99.90;;;;;;5042992;28;20488;-73
2022/09/26 10:24:52;;;;;;;8.15;3.80;;;11.80;99.90;;;;;;5043382;28;20505;-73
2022/09/26 10:27:32;;;;;;;8.73;3.63;;;11.90;99.90;;;;;;5049780;28;20832;-73
2022/09/26 10:30:00;;;;;;;6.32;3.88;;;11.90;99.90;;;;;;5047915;28;20492;-73
2022/09/26 10:32:27;;;;;;;5.93;3.80;;;11.90;99.90;;;;;;5049448;28;20410;-73
2022/09/26 10:35:17;;;;;;;7.18;4.18;;;11.90;99.90;;;;;;5048833;28;20405;-73
2022/09/26 10:38:09;;;;;;;7.75;4.22;;;11.90;99.90;;;;;;5046225;28;20437;-73
2022/09/26 10:40:45;;;;;;;8.30;4.35;;;11.90;99.90;;;;;;5043486;28;20417;-73
2022/09/26 10:43:34;;;;;;;9.63;4.20;;;11.90;99.90;;;;;;5049480;28;20413;-74
2022/09/26 10:46:16;;;;;;;6.45;3.90;;;11.90;99.90;;;;;;5034550;28;20411;-75
2022/09/26 10:48:49;;;;;;;8.18;3.78;;;11.90;99.90;;;;;;5049331;28;20536;-73
2022/09/26 10:51:20;;;;;;;8.68;3.97;;;11.90;99.90;;;;;;5049115;28;20934;-73
2022/09/26 10:53:50;;;;;;;11.00;4.05;;;12.00;99.90;;;;;;5049489;28;20433;-73
2022/09/26 10:56:25;;;;;;;11.25;4.82;;;12.00;99.90;;;;;;5049055;28;20909;-74
2022/09/26 10:58:58;;;;;;;7.47;4.40;;;12.10;99.90;;;;;;5048131;28;21149;-73
2022/09/26 11:01:26;;;;;;;7.95;4.45;;;12.20;99.90;;;;;;5048995;28;20433;-73
2022/09/26 11:03:54;;;;;;;6.57;4.22;;;12.20;99.90;;;;;;5051737;28;20410;-73
2022/09/26 11:06:23;;;;;;;10.40;4.28;;;12.30;99.90;;;;;;5048495;28;20468;-74
2022/09/26 11:08:56;;;;;;;6.50;3.33;;;12.50;99.90;;;;;;5049561;28;20410;-74
2022/09/26 11:11:22;;;;;;;8.95;4.13;;;12.50;99.90;;;;;;5056626;28;20417;-74
2022/09/26 11:14:03;;;;;;;7.45;4.00;;;12.60;99.90;;;;;;5057779;28;20447;-74
2022/09/26 11:16:47;;;;;;;7.80;3.72;;;12.60;99.90;;;;;;5058461;28;20409;-73
2022/09/26 11:19:53;;;;;;;7.72;3.88;;;12.60;99.90;;;;;;5042258;28;20463;-74
2022/09/26 11:22:33;;;;;;;7.68;3.95;;;12.60;99.90;;;;;;5036582;28;20437;-73
2022/09/26 11:25:05;;;;;;;7.80;4.38;;;12.50;99.90;;;;;;5049159;28;20456;-75
2022/09/26 11:27:42;;;;;;;8.97;4.60;;;12.40;99.90;;;;;;5047039;28;20471;-74
2022/09/26 11:30:13;;;;;;;7.90;4.55;;;12.40;99.90;;;;;;5047745;28;20989;-73
2022/09/26 11:32:42;;;;;;;9.52;4.47;;;12.40;99.90;;;;;;5048562;28;20413;-73
2022/09/26 11:35:32;;;;;;;9.00;4.18;;;12.40;99.90;;;;;;5048553;28;20413;-74
2022/09/26 11:38:25;;;;;;;7.97;4.23;;;12.30;99.90;;;;;;5044778;28;20409;-72
2022/09/26 11:41:00;;;;;;;8.90;4.60;;;12.30;99.90;;;;;;5047166;28;20410;-73
2022/09/26 11:43:28;;;;;;;6.63;4.40;;;12.30;99.90;;;;;;5048236;28;20450;-73
2022/09/26 11:46:14;;;;;;;9.07;4.68;;;12.30;99.90;;;;;;5047566;28;20402;-72
2022/09/26 11:49:16;;;;;;;7.00;4.35;;;12.30;99.90;;;;;;5048200;28;20412;-74
2022/09/26 11:51:54;;;;;;;11.40;4.53;;;12.20;99.90;;;;;;5046669;28;20405;-73
2022/09/26 11:54:46;;;;;;;7.80;4.57;;;12.20;99.90;;;;;;5047737;28;20421;-72
2022/09/26 11:57:31;;;;;;;9.03;4.47;;;12.20;99.90;;;;;;5018043;28;20427;-72
2022/09/26 12:00:23;;;;;;;7.57;4.30;;;12.10;99.90;;;;;;5047474;28;20437;-72
2022/09/26 12:03:13;;;;;;;7.05;3.95;;;12.10;99.90;;;;;;5029721;28;20813;-74
2022/09/26 12:05:44;;;;;;;6.53;3.60;;;12.10;99.90;;;;;;5044378;28;20420;-73
2022/09/26 12:08:29;;;;;;;7.25;3.78;;;12.10;99.90;;;;;;5047814;28;20439;-73
2022/09/26 12:11:19;;;;;;;6.17;3.80;;;12.10;99.90;;;;;;5048046;28;20409;-73
2022/09/26 12:14:13;;;;;;;8.03;3.80;;;12.10;99.90;;;;;;5047004;28;20928;-72
2022/09/26 12:17:04;;;;;;;6.72;3.78;;;12.10;99.90;;;;;;5009345;28;20411;-72
2022/09/26 12:19:41;;;;;;;6.50;3.55;;;12.10;99.90;;;;;;5047595;28;20496;-72
2022/09/26 12:22:29;;;;;;;5.75;3.63;;;12.10;99.90;;;;;;5047156;28;20425;-73
2022/09/26 12:25:35;;;;;;;4.28;3.42;;;12.10;99.90;;;;;;5146699;27;20881;-73
2022/09/26 12:28:15;;;;;;;6.10;3.20;;;12.10;99.90;;;;;;5143363;27;20414;-73
2022/09/26 12:31:03;;;;;;;5.57;3.35;;;12.10;99.90;;;;;;5145083;27;20403;-73
2022/09/26 12:34:06;;;;;;;5.55;3.67;;;12.20;99.90;;;;;;5144598;27;20427;-73
2022/09/26 12:36:51;;;;;;;5.55;3.47;;;12.20;99.90;;;;;;5144963;27;20390;-74
2022/09/26 12:39:28;;;;;;;4.70;3.00;;;12.20;99.90;;;;;;5145304;27;20485;-74
2022/09/26 12:42:24;;;;;;;5.95;3.30;;;12.20;99.90;;;;;;5145053;27;20481;-74
2022/09/26 12:45:33;;;;;;;6.32;3.42;;;12.20;99.90;;;;;;5145292;27;21153;-74
2022/09/26 12:48:08;;;;;;;4.35;3.05;;;12.30;99.90;;;;;;5145819;27;20414;-74
2022/09/26 12:51:18;;;;;;;5.70;3.40;;;12.30;99.90;;;;;;5132248;27;20873;-74
2022/09/26 12:54:11;;;;;;;5.82;3.42;;;12.30;99.90;;;;;;5057533;28;20481;-73
2022/09/26 12:56:48;;;;;;;5.38;3.50;;;12.30;99.90;;;;;;5081775;28;20415;-73
2022/09/26 12:59:48;;;;;;;4.93;3.03;;;12.30;99.90;;;;;;5118691;27;20418;-73
2022/09/26 13:02:22;;;;;;;4.23;3.13;;;12.30;99.90;;;;;;5121455;27;20414;-71
2022/09/26 13:05:16;;;;;;;4.30;2.92;;;12.40;99.90;;;;;;5135098;27;20814;-72
2022/09/26 13:07:41;;;;;;;4.93;2.60;;;12.40;99.90;;;;;;5131865;27;20437;-74
2022/09/26 13:10:40;;;;;;;4.07;2.80;;;12.40;99.90;;;;;;5131523;27;20411;-74
2022/09/26 13:13:49;;;;;;;5.18;2.90;;;12.50;99.90;;;;;;5120675;27;20438;-74
2022/09/26 13:16:35;;;;;;;4.72;2.97;;;12.60;99.90;;;;;;5124806;27;20758;-73
2022/09/26 13:19:35;;;;;;;6.05;2.95;;;12.60;99.90;;;;;;5132014;27;20420;-72
2022/09/26 13:22:19;;;;;;;4.22;2.80;;;12.70;99.90;;;;;;5145089;27;20471;-72
2022/09/26 13:25:09;;;;;;;4.90;2.47;;;12.70;99.90;;;;;;5143118;27;20429;-72
2022/09/26 13:27:40;;;;;;;4.45;2.80;;;12.80;99.90;;;;;;5124373;27;20412;-71